Wheaton, MN

2:26 PM CST on January 24, 2017 (GMT -0600)
Wheaton Municipal

Weather History for KETH - September, 2013

Change the Weather History Date:

Wednesday, September 11, 2013

  Actual Average Record
Temperature  
Mean Temperature 72 °F -  
Max Temperature 86 °F 78 °F 95 °F (1948)
Min Temperature 59 °F 51 °F 35 °F (1955)
Cooling Degree Days 8    
Growing Degree Days 22 (Base 50)    
Moisture  
Dew Point 57 °F    
Average Humidity 63    
Maximum Humidity 94    
Minimum Humidity 32    
Precipitation  
Precipitation 0.00 in - - ()
Sea Level Pressure  
Sea Level Pressure 30.08 in    
Wind  
Wind Speed 8 mph (WNW)    
Max Wind Speed 22 mph    
Max Gust Speed 28 mph    
Visibility 10 miles    
Events      
Averages and records for this station are not official NWS values.
T = Trace of Precipitation, MM = Missing Value Source: NWS Daily Summary

Daily Weather History Graph

Daily Weather History Graph

Search for Another Location

Airport or City:

Trip Planner

Search our weather history database for the weather conditions in past years. The results will help you decide how hot, cold, wet, or windy it might be!

Date:

Astronomy

Sep. 11, 2013 Rise Set
Actual Time 6:59 AM CDT 7:44 PM CDT
Civil Twilight 6:29 AM CDT 8:14 PM CDT
Nautical Twilight 5:53 AM CDT 8:50 PM CDT
Astronomical Twilight 5:16 AM CDT 9:27 PM CDT
Moon 1:49 PM CDT (9/11) 11:21 PM CDT (9/11)
Length of Visible Light 13h 44m
Length of Day
12h 44m
Waxing Crescent, 39% of the Moon is Illuminated
Sep 11
Waxing Crescent
Sep 12
First Quarter
Sep 19
Full
Sep 26
Last Quarter
Oct 4
New

Hourly Weather History & Observations

Time (CDT) Temp. Heat Index Dew Point Humidity Pressure Visibility Wind Dir Wind Speed Gust Speed Precip Events Conditions
2:14 AM 69.8 °F - 62.6 °F 78% 30.00 in 10.0 mi WSW 8.1 mph - N/A   Clear
2:15 AM 69.8 °F - 62.6 °F 78% 30.00 in 10.0 mi WSW 8.1 mph - N/A   Clear
2:34 AM 68.0 °F - 62.6 °F 83% 30.00 in 10.0 mi WSW 5.8 mph - N/A   Clear
2:54 AM 69.8 °F - 62.6 °F 78% 30.00 in 10.0 mi WSW 8.1 mph - N/A   Scattered Clouds
3:14 AM 68.0 °F - 62.6 °F 83% 30.00 in 10.0 mi WSW 6.9 mph - N/A   Scattered Clouds
3:34 AM 68.0 °F - 62.6 °F 83% 30.01 in 10.0 mi WSW 6.9 mph - N/A   Clear
3:54 AM 68.0 °F - 60.8 °F 78% 30.01 in 10.0 mi WSW 8.1 mph - N/A   Clear
4:14 AM 66.2 °F - 60.8 °F 83% 30.01 in 10.0 mi WSW 8.1 mph - N/A   Clear
4:35 AM 66.2 °F - 60.8 °F 83% 30.02 in 10.0 mi WSW 8.1 mph - N/A   Clear
4:54 AM 66.2 °F - 60.8 °F 83% 30.02 in 10.0 mi WSW 5.8 mph - N/A   Clear
5:14 AM 64.4 °F - 60.8 °F 88% 30.02 in 10.0 mi WSW 5.8 mph - N/A   Clear
5:34 AM 64.4 °F - 60.8 °F 88% 30.03 in 10.0 mi WSW 5.8 mph - N/A   Clear
5:54 AM 64.4 °F - 60.8 °F 88% 30.03 in 10.0 mi WSW 4.6 mph - N/A   Clear
6:14 AM 64.4 °F - 60.8 °F 88% 30.04 in 10.0 mi West 3.5 mph - N/A   Clear
6:34 AM 62.6 °F - 60.8 °F 94% 30.05 in 10.0 mi West 5.8 mph - N/A   Clear
6:54 AM 62.6 °F - 60.8 °F 94% 30.06 in 10.0 mi West 4.6 mph - N/A   Clear
7:14 AM 64.4 °F - 60.8 °F 88% 30.06 in 10.0 mi West 5.8 mph - N/A   Clear
7:34 AM 62.6 °F - 60.8 °F 94% 30.07 in 10.0 mi West 4.6 mph - N/A   Clear
7:54 AM 64.4 °F - 60.8 °F 88% 30.07 in 10.0 mi West 4.6 mph - N/A   Clear
8:14 AM 66.2 °F - 60.8 °F 83% 30.07 in 10.0 mi West 5.8 mph - N/A   Clear
8:35 AM 66.2 °F - 62.6 °F 88% 30.08 in 10.0 mi WNW 6.9 mph - N/A   Clear
8:54 AM 68.0 °F - 62.6 °F 83% 30.08 in 10.0 mi West 4.6 mph - N/A   Clear
9:15 AM 69.8 °F - 62.6 °F 78% 30.08 in 10.0 mi WNW 4.6 mph - N/A   Clear
9:34 AM 69.8 °F - 62.6 °F 78% 30.09 in 10.0 mi WNW 5.8 mph - N/A   Clear
9:54 AM 71.6 °F - 62.6 °F 73% 30.09 in 10.0 mi WNW 4.6 mph - N/A   Clear
10:14 AM 73.4 °F - 62.6 °F 69% 30.09 in 10.0 mi West 5.8 mph - N/A   Clear
10:35 AM 73.4 °F - 64.4 °F 73% 30.09 in 10.0 mi West 4.6 mph - N/A   Clear
10:54 AM 75.2 °F - 64.4 °F 69% 30.09 in 10.0 mi West 5.8 mph - N/A   Clear
11:15 AM 78.8 °F - 64.4 °F 61% 30.09 in 10.0 mi WNW 4.6 mph - N/A   Clear
11:34 AM 78.8 °F - 64.4 °F 61% 30.08 in 10.0 mi WNW 4.6 mph - N/A   Clear
11:54 AM 80.6 °F 81.5 °F 60.8 °F 51% 30.08 in 10.0 mi WNW 6.9 mph - N/A   Clear
12:14 PM 82.4 °F 83.4 °F 62.6 °F 51% 30.08 in 10.0 mi West 6.9 mph - N/A   Clear
12:35 PM 82.4 °F 82.9 °F 60.8 °F 48% 30.08 in 10.0 mi West 6.9 mph - N/A   Clear
12:54 PM 82.4 °F 82.5 °F 59.0 °F 45% 30.08 in 10.0 mi West 10.4 mph - N/A   Clear
1:15 PM 84.2 °F 83.5 °F 57.2 °F 40% 30.08 in 10.0 mi West 10.4 mph - N/A   Clear
1:34 PM 84.2 °F 83.0 °F 55.4 °F 37% 30.08 in 10.0 mi WNW 15.0 mph 18.4 mph N/A   Clear
1:54 PM 84.2 °F 82.8 °F 53.6 °F 35% 30.08 in 10.0 mi West 12.7 mph 21.9 mph N/A   Clear
2:14 PM 84.2 °F 83.0 °F 55.4 °F 37% 30.08 in 10.0 mi West 15.0 mph 23.0 mph N/A   Scattered Clouds
2:35 PM 84.2 °F 83.0 °F 55.4 °F 37% 30.08 in 10.0 mi WNW 16.1 mph 24.2 mph N/A   Scattered Clouds
2:54 PM 84.2 °F 83.0 °F 55.4 °F 37% 30.07 in 10.0 mi WNW 15.0 mph 25.3 mph N/A   Clear
3:15 PM 82.4 °F 81.4 °F 53.6 °F 37% 30.07 in 10.0 mi NW 12.7 mph 19.6 mph N/A   Clear
3:35 PM 84.2 °F 83.0 °F 55.4 °F 37% 30.07 in 10.0 mi WNW 16.1 mph 20.7 mph N/A   Clear
3:55 PM 86.0 °F 84.2 °F 53.6 °F 33% 30.07 in 10.0 mi NW 21.9 mph 27.6 mph N/A   Scattered Clouds
4:14 PM 84.2 °F - 51.8 °F 33% 30.07 in 10.0 mi WNW 17.3 mph 24.2 mph N/A   Clear
4:34 PM 84.2 °F 82.8 °F 53.6 °F 35% 30.07 in 10.0 mi WNW 17.3 mph 20.7 mph N/A   Clear
4:54 PM 84.2 °F - 51.8 °F 33% 30.07 in 10.0 mi WNW 17.3 mph 23.0 mph N/A   Clear
5:14 PM 82.4 °F - 50.0 °F 32% 30.08 in 10.0 mi NW 13.8 mph - N/A   Clear
5:34 PM 82.4 °F - 50.0 °F 32% 30.08 in 10.0 mi WNW 16.1 mph 21.9 mph N/A   Clear
5:54 PM 80.6 °F - 50.0 °F 34% 30.09 in 10.0 mi NW 17.3 mph 23.0 mph N/A   Clear
6:14 PM 80.6 °F - 50.0 °F 34% 30.09 in 10.0 mi NW 12.7 mph 19.6 mph N/A   Clear
6:34 PM 78.8 °F - 51.8 °F 39% 30.09 in 10.0 mi NW 10.4 mph 18.4 mph N/A   Clear
6:54 PM 77.0 °F - 50.0 °F 39% 30.10 in 10.0 mi NW 13.8 mph - N/A   Clear
7:15 PM 75.2 °F - 50.0 °F 41% 30.10 in 10.0 mi NW 10.4 mph - N/A   Clear
7:34 PM 73.4 °F - 50.0 °F 44% 30.11 in 10.0 mi NW 10.4 mph - N/A   Clear
7:55 PM 71.6 °F - 48.2 °F 43% 30.12 in 10.0 mi NNW 10.4 mph 16.1 mph N/A   Clear
8:15 PM 69.8 °F - 48.2 °F 46% 30.13 in 10.0 mi NNW 6.9 mph - N/A   Clear
8:34 PM 68.0 °F - 48.2 °F 49% 30.14 in 10.0 mi NW 6.9 mph - N/A   Clear
8:55 PM 66.2 °F - 50.0 °F 56% 30.15 in 10.0 mi NW 4.6 mph - N/A   Clear
9:14 PM 64.4 °F - 51.8 °F 64% 30.16 in 10.0 mi WNW 4.6 mph - N/A   Clear
9:34 PM 62.6 °F - 51.8 °F 68% 30.17 in 10.0 mi WNW 4.6 mph - N/A   Clear
9:54 PM 62.6 °F - 51.8 °F 68% 30.17 in 10.0 mi WNW 4.6 mph - N/A   Clear
10:15 PM 60.8 °F - 51.8 °F 72% 30.17 in 10.0 mi WNW 4.6 mph - N/A   Clear
10:34 PM 60.8 °F - 51.8 °F 72% 30.18 in 10.0 mi West 4.6 mph - N/A   Clear
10:54 PM 60.8 °F - 51.8 °F 72% 30.18 in 10.0 mi WNW 4.6 mph - N/A   Clear
11:14 PM 59.0 °F - 51.8 °F 77% 30.18 in 10.0 mi Calm Calm - N/A   Clear
11:34 PM 59.0 °F - 51.8 °F 77% 30.18 in 10.0 mi Calm Calm - N/A   Clear
11:54 PM 59.0 °F - 53.6 °F 82% 30.19 in 10.0 mi Calm Calm - N/A   Clear